Wetterdaten: Woche 03.08.15 - 09.08.15 (KW32)
Datum Zeit Temp. A. Feuchte A. Luftdruck Regen Wind Richtung Sonnenschein ET UV Solar Taupunkt Windchill Windben Empfang
03.08.2015 00:00 14,2 C 98 % 1020,7 hPa 0,0 l/m 0,0 km/h (0 Bft) N 0,00 h 0,000 mm 0,0 UV-I 0 W/m 13,8 C 14,2 C 0,3 km/h (0 Bft) 0,00 %
03.08.2015 01:00 13,4 C 99 % 1020,5 hPa 0,0 l/m 0,0 km/h (0 Bft) N 0,00 h 0,000 mm 0,0 UV-I 0 W/m 13,3 C 13,4 C 0,0 km/h (0 Bft) 0,00 %
03.08.2015 02:00 12,5 C 99 % 1020,2 hPa 0,3 l/m 0,0 km/h (0 Bft) N 0,00 h 0,000 mm 0,0 UV-I 0 W/m 12,4 C 12,5 C 0,0 km/h (0 Bft) 0,00 %
03.08.2015 03:00 11,9 C 97 % 1019,9 hPa 0,0 l/m 0,0 km/h (0 Bft) N 0,00 h 0,000 mm 0,0 UV-I 0 W/m 11,4 C 11,9 C 0,0 km/h (0 Bft) 0,00 %
03.08.2015 04:00 11,1 C 98 % 1019,9 hPa 0,0 l/m 0,0 km/h (0 Bft) N 0,00 h 0,000 mm 0,0 UV-I 0 W/m 10,7 C 11,1 C 0,0 km/h (0 Bft) 0,00 %
03.08.2015 05:00 11,3 C 97 % 1019,8 hPa 0,0 l/m 0,0 km/h (0 Bft) N 0,00 h 0,000 mm 0,0 UV-I 4 W/m 10,9 C 11,3 C 0,0 km/h (0 Bft) 0,00 %
03.08.2015 06:00 12,6 C 99 % 1020,1 hPa 0,0 l/m 0,0 km/h (0 Bft) N 0,00 h 0,000 mm 0,0 UV-I 36 W/m 12,4 C 12,6 C 0,0 km/h (0 Bft) 0,00 %
03.08.2015 07:00 13,5 C 99 % 1020,4 hPa 0,0 l/m 0,1 km/h (0 Bft) N 0,00 h 0,000 mm 1,0 UV-I 109 W/m 13,3 C 13,5 C 0,3 km/h (0 Bft) 0,00 %
03.08.2015 08:00 14,5 C 99 % 1020,4 hPa 0,0 l/m 0,0 km/h (0 Bft) N 0,00 h 0,000 mm 1,0 UV-I 191 W/m 14,3 C 14,5 C 0,0 km/h (0 Bft) 0,00 %
03.08.2015 09:00 16,1 C 90 % 1019,6 hPa 0,0 l/m 0,0 km/h (0 Bft) N 0,58 h 0,000 mm 1,5 UV-I 326 W/m 14,5 C 16,1 C 0,0 km/h (0 Bft) 0,00 %
03.08.2015 10:00 19,7 C 71 % 1019,5 hPa 0,0 l/m 0,0 km/h (0 Bft) N 0,67 h 0,000 mm 2,7 UV-I 575 W/m 14,3 C 19,7 C 0,0 km/h (0 Bft) 0,00 %
03.08.2015 11:00 22,6 C 63 % 1019,8 hPa 0,0 l/m 0,2 km/h (0 Bft) NO 0,93 h 0,000 mm 4,0 UV-I 731 W/m 15,1 C 22,6 C 0,7 km/h (0 Bft) 0,00 %
03.08.2015 12:00 23,6 C 57 % 1019,9 hPa 0,0 l/m 1,1 km/h (1 Bft) O 1,00 h 0,000 mm 5,0 UV-I 804 W/m 14,5 C 23,6 C 2,6 km/h (1 Bft) 0,00 %
03.08.2015 13:00 24,4 C 49 % 1019,5 hPa 0,0 l/m 0,6 km/h (0 Bft) O-NO 1,00 h 0,000 mm 5,0 UV-I 863 W/m 13,1 C 24,4 C 1,7 km/h (1 Bft) 0,00 %
03.08.2015 14:00 26,0 C 43 % 1019,4 hPa 0,0 l/m 0,6 km/h (0 Bft) W-SW 1,00 h 0,000 mm 4,0 UV-I 909 W/m 12,3 C 26,0 C 2,0 km/h (1 Bft) 0,00 %
03.08.2015 15:00 27,9 C 38 % 1019,0 hPa 0,0 l/m 0,4 km/h (0 Bft) NW 1,00 h 0,000 mm 3,5 UV-I 929 W/m 12,4 C 27,9 C 1,0 km/h (0 Bft) 0,00 %
03.08.2015 16:00 28,3 C 39 % 1018,5 hPa 0,0 l/m 0,4 km/h (0 Bft) N-NW 1,00 h 0,000 mm 1,9 UV-I 893 W/m 12,8 C 28,3 C 1,7 km/h (1 Bft) 0,00 %
03.08.2015 17:00 28,6 C 37 % 1017,9 hPa 0,0 l/m 0,3 km/h (0 Bft) NW 1,00 h 0,000 mm 1,0 UV-I 836 W/m 12,5 C 28,6 C 1,0 km/h (0 Bft) 0,00 %
03.08.2015 18:00 28,6 C 39 % 1017,5 hPa 0,0 l/m 0,0 km/h (0 Bft) N 1,00 h 0,000 mm 1,0 UV-I 699 W/m 13,2 C 28,6 C 0,0 km/h (0 Bft) 0,00 %
03.08.2015 19:00 27,7 C 42 % 1017,2 hPa 0,0 l/m 0,0 km/h (0 Bft) N 1,00 h 0,000 mm 1,0 UV-I 435 W/m 13,4 C 27,7 C 0,0 km/h (0 Bft) 0,00 %
03.08.2015 20:00 24,1 C 54 % 1017,2 hPa 0,0 l/m 0,0 km/h (0 Bft) N 0,50 h 0,000 mm 0,0 UV-I 26 W/m 14,1 C 24,1 C 0,0 km/h (0 Bft) 0,00 %
03.08.2015 21:00 20,3 C 71 % 1017,5 hPa 0,0 l/m 0,0 km/h (0 Bft) N 0,00 h 0,000 mm 0,0 UV-I 0 W/m 14,8 C 20,3 C 0,0 km/h (0 Bft) 0,00 %
03.08.2015 22:00 18,7 C 76 % 1017,4 hPa 0,0 l/m 0,0 km/h (0 Bft) N 0,00 h 0,000 mm 0,0 UV-I 0 W/m 14,3 C 18,7 C 0,0 km/h (0 Bft) 0,00 %
03.08.2015 23:00 17,4 C 84 % 1017,4 hPa 0,0 l/m 0,0 km/h (0 Bft) N 0,00 h 0,000 mm 0,0 UV-I 0 W/m 14,6 C 17,4 C 0,0 km/h (0 Bft) 0,00 %
04.08.2015 00:00 16,4 C 89 % 1017,3 hPa 0,0 l/m 0,0 km/h (0 Bft) N 0,00 h 0,000 mm 0,0 UV-I 0 W/m 14,6 C 16,4 C 0,0 km/h (0 Bft) 0,00 %
04.08.2015 01:00 15,6 C 93 % 1016,8 hPa 0,0 l/m 0,0 km/h (0 Bft) N 0,00 h 0,000 mm 0,0 UV-I 0 W/m 14,4 C 15,6 C 0,0 km/h (0 Bft) 0,00 %
04.08.2015 02:00 15,0 C 95 % 1016,3 hPa 0,0 l/m 0,0 km/h (0 Bft) N 0,00 h 0,000 mm 0,0 UV-I 0 W/m 14,2 C 15,0 C 0,0 km/h (0 Bft) 0,00 %
04.08.2015 03:00 14,2 C 96 % 1016,2 hPa 0,0 l/m 0,0 km/h (0 Bft) N 0,00 h 0,000 mm 0,0 UV-I 0 W/m 13,5 C 14,2 C 0,0 km/h (0 Bft) 0,00 %
04.08.2015 04:00 14,0 C 98 % 1015,9 hPa 0,0 l/m 0,0 km/h (0 Bft) N 0,00 h 0,000 mm 0,0 UV-I 0 W/m 13,6 C 14,0 C 0,0 km/h (0 Bft) 0,00 %
04.08.2015 05:00 13,2 C 98 % 1015,6 hPa 0,0 l/m 0,0 km/h (0 Bft) N 0,08 h 0,000 mm 0,0 UV-I 9 W/m 12,9 C 13,2 C 0,0 km/h (0 Bft) 0,00 %
04.08.2015 06:00 15,0 C 95 % 1015,7 hPa 0,0 l/m 0,0 km/h (0 Bft) N 1,00 h 0,000 mm 0,0 UV-I 162 W/m 14,2 C 15,0 C 0,0 km/h (0 Bft) 0,00 %
04.08.2015 07:00 20,8 C 70 % 1015,6 hPa 0,0 l/m 0,0 km/h (0 Bft) N 1,00 h 0,000 mm 1,0 UV-I 296 W/m 15,1 C 20,8 C 0,0 km/h (0 Bft) 0,00 %
04.08.2015 08:00 22,6 C 66 % 1015,6 hPa 0,0 l/m 0,4 km/h (0 Bft) O 1,00 h 0,000 mm 1,0 UV-I 344 W/m 15,9 C 22,6 C 1,3 km/h (1 Bft) 0,00 %
04.08.2015 09:00 25,3 C 57 % 1015,5 hPa 0,0 l/m 0,8 km/h (0 Bft) O-SO 1,00 h 0,000 mm 2,0 UV-I 459 W/m 16,0 C 25,3 C 1,3 km/h (1 Bft) 0,00 %
04.08.2015 10:00 27,1 C 52 % 1015,0 hPa 0,0 l/m 1,1 km/h (1 Bft) O 1,00 h 0,000 mm 2,6 UV-I 609 W/m 16,4 C 27,1 C 3,0 km/h (1 Bft) 0,00 %
04.08.2015 11:00 28,6 C 47 % 1014,7 hPa 0,0 l/m 2,3 km/h (1 Bft) NO 1,00 h 0,000 mm 3,9 UV-I 746 W/m 16,3 C 28,6 C 3,6 km/h (1 Bft) 0,00 %
04.08.2015 12:00 29,5 C 43 % 1014,3 hPa 0,0 l/m 1,5 km/h (1 Bft) SO 1,02 h 0,000 mm 4,9 UV-I 840 W/m 15,8 C 29,5 C 2,6 km/h (1 Bft) 0,00 %
04.08.2015 13:00 30,6 C 35 % 1013,8 hPa 0,0 l/m 1,7 km/h (1 Bft) O-SO 1,00 h 0,000 mm 4,7 UV-I 907 W/m 13,3 C 30,6 C 3,3 km/h (1 Bft) 0,00 %
04.08.2015 14:00 31,9 C 32 % 1013,3 hPa 0,0 l/m 1,1 km/h (1 Bft) NW 1,00 h 0,000 mm 4,0 UV-I 954 W/m 12,9 C 31,9 C 2,3 km/h (1 Bft) 0,00 %
04.08.2015 15:00 33,0 C 31 % 1012,9 hPa 0,0 l/m 0,5 km/h (0 Bft) W-NW 1,00 h 0,000 mm 3,4 UV-I 957 W/m 13,8 C 33,0 C 1,3 km/h (1 Bft) 0,00 %
04.08.2015 16:00 32,1 C 32 % 1012,8 hPa 0,0 l/m 2,1 km/h (1 Bft) W-NW 1,00 h 0,000 mm 1,5 UV-I 729 W/m 13,4 C 32,1 C 3,6 km/h (1 Bft) 0,00 %
04.08.2015 17:00 31,7 C 33 % 1012,8 hPa 0,0 l/m 2,4 km/h (1 Bft) W-NW 1,00 h 0,000 mm 1,0 UV-I 772 W/m 13,2 C 31,7 C 4,3 km/h (1 Bft) 0,00 %
04.08.2015 18:00 31,7 C 34 % 1012,9 hPa 0,0 l/m 1,0 km/h (0 Bft) W-SW 1,00 h 0,000 mm 1,0 UV-I 619 W/m 13,9 C 31,7 C 2,3 km/h (1 Bft) 0,00 %
04.08.2015 19:00 30,1 C 35 % 1013,1 hPa 0,0 l/m 0,2 km/h (0 Bft) N 1,00 h 0,000 mm 1,0 UV-I 242 W/m 12,7 C 30,1 C 0,7 km/h (0 Bft) 0,00 %
04.08.2015 20:00 26,1 C 45 % 1013,6 hPa 0,0 l/m 0,0 km/h (0 Bft) N 0,33 h 0,000 mm 0,0 UV-I 19 W/m 13,0 C 26,1 C 0,0 km/h (0 Bft) 0,00 %
04.08.2015 21:00 23,3 C 57 % 1014,1 hPa 0,0 l/m 0,0 km/h (0 Bft) N 0,00 h 0,000 mm 0,0 UV-I 0 W/m 14,1 C 23,3 C 0,0 km/h (0 Bft) 0,00 %
04.08.2015 22:00 22,9 C 59 % 1015,3 hPa 0,0 l/m 3,5 km/h (1 Bft) W-SW 0,00 h 0,000 mm 0,0 UV-I 0 W/m 14,3 C 22,7 C 6,0 km/h (2 Bft) 0,00 %
04.08.2015 23:00 23,6 C 54 % 1016,8 hPa 0,0 l/m 6,4 km/h (2 Bft) W-NW 0,00 h 0,000 mm 0,0 UV-I 0 W/m 13,7 C 23,3 C 10,5 km/h (2 Bft) 0,00 %
05.08.2015 00:00 22,8 C 56 % 1017,9 hPa 0,0 l/m 4,2 km/h (1 Bft) W-NW 0,00 h 0,000 mm 0,0 UV-I 0 W/m 13,5 C 22,7 C 6,9 km/h (2 Bft) 0,00 %
05.08.2015 01:00 21,9 C 57 % 1018,4 hPa 0,0 l/m 3,6 km/h (1 Bft) W-SW 0,00 h 0,000 mm 0,0 UV-I 0 W/m 13,0 C 21,7 C 5,9 km/h (2 Bft) 0,00 %
05.08.2015 02:00 20,8 C 62 % 1018,6 hPa 0,0 l/m 2,2 km/h (1 Bft) W-SW 0,00 h 0,000 mm 0,0 UV-I 0 W/m 13,2 C 20,8 C 4,6 km/h (1 Bft) 0,00 %
05.08.2015 03:00 19,7 C 68 % 1019,2 hPa 0,0 l/m 0,5 km/h (0 Bft) NW 0,00 h 0,000 mm 0,0 UV-I 0 W/m 13,7 C 19,7 C 1,3 km/h (1 Bft) 0,00 %
05.08.2015 04:00 19,6 C 70 % 1019,4 hPa 0,0 l/m 0,1 km/h (0 Bft) W-NW 0,00 h 0,000 mm 0,0 UV-I 0 W/m 13,9 C 19,6 C 0,3 km/h (0 Bft) 0,00 %
05.08.2015 05:00 19,1 C 73 % 1019,5 hPa 0,0 l/m 0,0 km/h (0 Bft) N 0,00 h 0,000 mm 0,0 UV-I 7 W/m 14,1 C 19,1 C 0,0 km/h (0 Bft) 0,00 %
05.08.2015 06:00 20,3 C 67 % 1019,5 hPa 0,0 l/m 0,0 km/h (0 Bft) N 1,00 h 0,000 mm 0,0 UV-I 120 W/m 14,0 C 20,3 C 0,3 km/h (0 Bft) 0,00 %
05.08.2015 07:00 23,3 C 56 % 1019,5 hPa 0,0 l/m 0,2 km/h (0 Bft) W-SW 1,00 h 0,000 mm 1,0 UV-I 286 W/m 14,1 C 23,3 C 0,7 km/h (0 Bft) 0,00 %
05.08.2015 08:00 25,0 C 50 % 1018,6 hPa 0,0 l/m 0,7 km/h (0 Bft) W-SW 1,00 h 0,000 mm 1,0 UV-I 347 W/m 13,9 C 25,0 C 1,7 km/h (1 Bft) 0,00 %
05.08.2015 09:00 28,1 C 43 % 1019,1 hPa 0,0 l/m 0,2 km/h (0 Bft) N-NO 1,00 h 0,000 mm 2,0 UV-I 471 W/m 14,2 C 28,1 C 0,7 km/h (0 Bft) 0,00 %
05.08.2015 10:00 29,3 C 40 % 1019,3 hPa 0,0 l/m 0,6 km/h (0 Bft) NW 1,00 h 0,000 mm 2,5 UV-I 607 W/m 14,3 C 29,3 C 1,3 km/h (1 Bft) 0,00 %
05.08.2015 11:00 29,6 C 40 % 1019,0 hPa 0,0 l/m 0,7 km/h (0 Bft) O 1,00 h 0,000 mm 3,9 UV-I 754 W/m 14,5 C 29,6 C 2,6 km/h (1 Bft) 0,00 %
05.08.2015 12:00 29,2 C 40 % 1018,6 hPa 0,0 l/m 0,6 km/h (0 Bft) NO 1,00 h 0,000 mm 4,6 UV-I 827 W/m 14,4 C 29,2 C 2,0 km/h (1 Bft) 0,00 %
05.08.2015 13:00 29,3 C 39 % 1017,9 hPa 0,0 l/m 1,7 km/h (1 Bft) N-NO 1,00 h 0,000 mm 4,5 UV-I 880 W/m 13,7 C 29,3 C 4,3 km/h (1 Bft) 0,00 %
05.08.2015 14:00 29,7 C 35 % 1017,2 hPa 0,0 l/m 3,2 km/h (1 Bft) O 1,00 h 0,000 mm 4,0 UV-I 923 W/m 12,8 C 29,7 C 5,6 km/h (1 Bft) 0,00 %
05.08.2015 15:00 30,4 C 32 % 1016,2 hPa 0,0 l/m 0,6 km/h (0 Bft) N-NO 1,00 h 0,000 mm 3,3 UV-I 931 W/m 11,9 C 30,4 C 1,3 km/h (1 Bft) 0,00 %
05.08.2015 16:00 31,0 C 32 % 1015,6 hPa 0,0 l/m 0,9 km/h (0 Bft) O-NO 1,00 h 0,000 mm 1,5 UV-I 894 W/m 12,3 C 31,0 C 2,7 km/h (1 Bft) 0,00 %
05.08.2015 17:00 31,2 C 33 % 1015,0 hPa 0,0 l/m 0,8 km/h (0 Bft) O 1,00 h 0,000 mm 1,0 UV-I 825 W/m 13,0 C 31,2 C 2,6 km/h (1 Bft) 0,00 %
05.08.2015 18:00 31,7 C 34 % 1014,9 hPa 0,0 l/m 0,5 km/h (0 Bft) O-NO 1,00 h 0,000 mm 1,0 UV-I 686 W/m 13,7 C 31,7 C 1,0 km/h (0 Bft) 0,00 %
05.08.2015 19:00 31,3 C 35 % 1015,1 hPa 0,0 l/m 0,0 km/h (0 Bft) N 1,00 h 0,000 mm 1,0 UV-I 352 W/m 14,1 C 31,3 C 0,0 km/h (0 Bft) 0,00 %
05.08.2015 20:00 26,9 C 50 % 1015,3 hPa 0,0 l/m 0,0 km/h (0 Bft) N 0,33 h 0,000 mm 0,0 UV-I 24 W/m 15,4 C 26,9 C 0,0 km/h (0 Bft) 0,00 %
05.08.2015 21:00 23,3 C 63 % 1015,4 hPa 0,0 l/m 0,0 km/h (0 Bft) N 0,00 h 0,000 mm 0,0 UV-I 0 W/m 15,9 C 23,3 C 0,0 km/h (0 Bft) 0,00 %
05.08.2015 22:00 21,4 C 71 % 1015,7 hPa 0,0 l/m 0,0 km/h (0 Bft) N 0,00 h 0,000 mm 0,0 UV-I 0 W/m 15,9 C 21,4 C 0,0 km/h (0 Bft) 0,00 %
05.08.2015 23:00 20,1 C 77 % 1015,7 hPa 0,0 l/m 0,0 km/h (0 Bft) N 0,00 h 0,000 mm 0,0 UV-I 0 W/m 15,9 C 20,1 C 0,0 km/h (0 Bft) 0,00 %
06.08.2015 00:00 19,6 C 81 % 1015,6 hPa 0,0 l/m 0,0 km/h (0 Bft) N 0,00 h 0,000 mm 0,0 UV-I 0 W/m 16,2 C 19,6 C 0,0 km/h (0 Bft) 0,00 %
06.08.2015 01:00 19,0 C 85 % 1015,6 hPa 0,0 l/m 0,0 km/h (0 Bft) N 0,00 h 0,000 mm 0,0 UV-I 0 W/m 16,3 C 19,0 C 0,0 km/h (0 Bft) 0,00 %
06.08.2015 02:00 17,9 C 90 % 1015,8 hPa 0,0 l/m 0,0 km/h (0 Bft) N 0,00 h 0,000 mm 0,0 UV-I 0 W/m 16,2 C 17,9 C 0,0 km/h (0 Bft) 0,00 %
06.08.2015 03:00 17,3 C 92 % 1016,0 hPa 0,0 l/m 0,0 km/h (0 Bft) N 0,00 h 0,000 mm 0,0 UV-I 0 W/m 15,9 C 17,3 C 0,0 km/h (0 Bft) 0,00 %
06.08.2015 04:00 16,5 C 92 % 1016,1 hPa 0,0 l/m 0,0 km/h (0 Bft) N 0,00 h 0,000 mm 0,0 UV-I 0 W/m 15,3 C 16,5 C 0,0 km/h (0 Bft) 0,00 %
06.08.2015 05:00 16,1 C 94 % 1016,5 hPa 0,0 l/m 0,0 km/h (0 Bft) N 0,00 h 0,000 mm 0,0 UV-I 6 W/m 15,0 C 16,1 C 0,0 km/h (0 Bft) 0,00 %
06.08.2015 06:00 17,6 C 89 % 1016,8 hPa 0,0 l/m 0,0 km/h (0 Bft) N 1,00 h 0,000 mm 0,0 UV-I 134 W/m 15,6 C 17,6 C 0,0 km/h (0 Bft) 0,00 %
06.08.2015 07:00 23,1 C 66 % 1017,2 hPa 0,0 l/m 0,0 km/h (0 Bft) N 1,00 h 0,000 mm 1,0 UV-I 282 W/m 16,4 C 23,1 C 0,0 km/h (0 Bft) 0,00 %
06.08.2015 08:00 26,2 C 57 % 1017,5 hPa 0,0 l/m 0,1 km/h (0 Bft) W-SW 1,00 h 0,000 mm 1,0 UV-I 338 W/m 16,9 C 26,2 C 0,3 km/h (0 Bft) 0,00 %
06.08.2015 09:00 28,2 C 49 % 1017,8 hPa 0,0 l/m 0,0 km/h (0 Bft) N 1,00 h 0,000 mm 2,0 UV-I 455 W/m 16,5 C 28,2 C 0,0 km/h (0 Bft) 0,00 %
06.08.2015 10:00 30,4 C 44 % 1017,8 hPa 0,0 l/m 0,6 km/h (0 Bft) N-NW 1,00 h 0,000 mm 2,5 UV-I 609 W/m 16,7 C 30,4 C 1,7 km/h (1 Bft) 0,00 %
06.08.2015 11:00 31,8 C 42 % 1017,7 hPa 0,0 l/m 0,4 km/h (0 Bft) N-NW 1,00 h 0,000 mm 3,7 UV-I 763 W/m 17,1 C 31,8 C 1,3 km/h (1 Bft) 0,00 %
06.08.2015 12:00 32,1 C 40 % 1017,5 hPa 0,0 l/m 1,3 km/h (1 Bft) NO 1,00 h 0,000 mm 4,5 UV-I 841 W/m 16,8 C 32,1 C 2,6 km/h (1 Bft) 0,00 %
06.08.2015 13:00 32,8 C 35 % 1017,1 hPa 0,0 l/m 0,6 km/h (0 Bft) O-SO 1,00 h 0,000 mm 4,5 UV-I 898 W/m 15,2 C 32,8 C 1,3 km/h (1 Bft) 0,00 %
06.08.2015 14:00 33,8 C 31 % 1016,8 hPa 0,0 l/m 1,3 km/h (1 Bft) W 1,00 h 0,000 mm 4,0 UV-I 947 W/m 14,0 C 33,8 C 2,6 km/h (1 Bft) 0,00 %
06.08.2015 15:00 34,7 C 25 % 1016,3 hPa 0,0 l/m 0,7 km/h (0 Bft) N-NW 1,02 h 0,000 mm 3,3 UV-I 955 W/m 11,4 C 34,7 C 1,3 km/h (1 Bft) 0,00 %
06.08.2015 16:00 35,0 C 23 % 1016,1 hPa 0,0 l/m 0,7 km/h (0 Bft) N 1,00 h 0,000 mm 1,5 UV-I 914 W/m 11,0 C 35,0 C 2,0 km/h (1 Bft) 0,00 %
06.08.2015 17:00 35,0 C 23 % 1015,7 hPa 0,0 l/m 0,5 km/h (0 Bft) N 1,00 h 0,000 mm 1,0 UV-I 856 W/m 10,5 C 35,0 C 1,7 km/h (1 Bft) 0,00 %
06.08.2015 18:00 34,0 C 25 % 1015,5 hPa 0,0 l/m 0,0 km/h (0 Bft) N 1,00 h 0,000 mm 1,0 UV-I 604 W/m 11,0 C 34,0 C 0,0 km/h (0 Bft) 0,00 %
06.08.2015 19:00 33,0 C 26 % 1015,4 hPa 0,0 l/m 0,0 km/h (0 Bft) N 1,00 h 0,000 mm 1,0 UV-I 365 W/m 11,0 C 33,0 C 0,0 km/h (0 Bft) 0,00 %
06.08.2015 20:00 29,0 C 33 % 1015,8 hPa 0,0 l/m 0,0 km/h (0 Bft) N 0,42 h 0,000 mm 0,0 UV-I 27 W/m 11,2 C 29,0 C 0,0 km/h (0 Bft) 0,00 %
06.08.2015 21:00 24,1 C 48 % 1016,1 hPa 0,0 l/m 0,0 km/h (0 Bft) N 0,00 h 0,000 mm 0,0 UV-I 0 W/m 12,4 C 24,1 C 0,0 km/h (0 Bft) 0,00 %
06.08.2015 22:00 21,5 C 60 % 1016,3 hPa 0,0 l/m 0,0 km/h (0 Bft) N 0,00 h 0,000 mm 0,0 UV-I 0 W/m 13,2 C 21,5 C 0,0 km/h (0 Bft) 0,00 %
06.08.2015 23:00 20,1 C 67 % 1016,4 hPa 0,0 l/m 0,0 km/h (0 Bft) N 0,00 h 0,000 mm 0,0 UV-I 0 W/m 13,8 C 20,1 C 0,0 km/h (0 Bft) 0,00 %
07.08.2015 00:00 19,7 C 70 % 1016,5 hPa 0,0 l/m 0,0 km/h (0 Bft) N 0,00 h 0,000 mm 0,0 UV-I 0 W/m 14,1 C 19,7 C 0,0 km/h (0 Bft) 0,00 %
07.08.2015 01:00 18,4 C 76 % 1016,7 hPa 0,0 l/m 0,0 km/h (0 Bft) N 0,00 h 0,000 mm 0,0 UV-I 0 W/m 14,1 C 18,4 C 0,0 km/h (0 Bft) 0,00 %
07.08.2015 02:00 17,4 C 80 % 1016,5 hPa 0,0 l/m 0,0 km/h (0 Bft) N 0,00 h 0,000 mm 0,0 UV-I 0 W/m 13,9 C 17,4 C 0,0 km/h (0 Bft) 0,00 %
07.08.2015 03:00 16,3 C 83 % 1016,4 hPa 0,0 l/m 0,0 km/h (0 Bft) N 0,00 h 0,000 mm 0,0 UV-I 0 W/m 13,4 C 16,3 C 0,0 km/h (0 Bft) 0,00 %
07.08.2015 04:00 15,9 C 85 % 1016,4 hPa 0,0 l/m 0,0 km/h (0 Bft) N 0,00 h 0,000 mm 0,0 UV-I 0 W/m 13,3 C 15,9 C 0,0 km/h (0 Bft) 0,00 %
07.08.2015 05:00 15,3 C 88 % 1016,5 hPa 0,0 l/m 0,0 km/h (0 Bft) N 0,00 h 0,000 mm 0,0 UV-I 5 W/m 13,3 C 15,3 C 0,0 km/h (0 Bft) 0,00 %
07.08.2015 06:00 16,9 C 82 % 1016,8 hPa 0,0 l/m 0,0 km/h (0 Bft) N 1,00 h 0,000 mm 0,0 UV-I 114 W/m 13,7 C 16,9 C 0,0 km/h (0 Bft) 0,00 %
07.08.2015 07:00 23,2 C 57 % 1016,8 hPa 0,0 l/m 0,0 km/h (0 Bft) N 1,02 h 0,000 mm 1,0 UV-I 267 W/m 14,2 C 23,2 C 0,0 km/h (0 Bft) 0,00 %
07.08.2015 08:00 25,9 C 49 % 1016,9 hPa 0,0 l/m 0,6 km/h (0 Bft) NO 1,00 h 0,000 mm 1,0 UV-I 329 W/m 14,4 C 25,9 C 2,0 km/h (1 Bft) 0,00 %
07.08.2015 09:00 27,8 C 45 % 1016,9 hPa 0,0 l/m 1,8 km/h (1 Bft) O 1,00 h 0,000 mm 2,0 UV-I 446 W/m 14,7 C 27,8 C 3,6 km/h (1 Bft) 0,00 %
07.08.2015 10:00 29,7 C 42 % 1016,9 hPa 0,0 l/m 1,9 km/h (1 Bft) O 1,00 h 0,000 mm 2,5 UV-I 597 W/m 15,2 C 29,7 C 4,0 km/h (1 Bft) 0,00 %
07.08.2015 11:00 32,0 C 38 % 1016,5 hPa 0,0 l/m 3,6 km/h (1 Bft) O-SO 1,00 h 0,000 mm 3,7 UV-I 755 W/m 15,7 C 32,0 C 6,0 km/h (2 Bft) 0,00 %
07.08.2015 12:00 33,2 C 33 % 1016,0 hPa 0,0 l/m 3,6 km/h (1 Bft) O-SO 1,00 h 0,000 mm 4,6 UV-I 837 W/m 14,6 C 33,2 C 5,6 km/h (1 Bft) 0,00 %
07.08.2015 13:00 34,3 C 28 % 1015,5 hPa 0,0 l/m 1,9 km/h (1 Bft) O-NO 1,00 h 0,000 mm 4,5 UV-I 900 W/m 13,1 C 34,3 C 4,0 km/h (1 Bft) 0,00 %
07.08.2015 14:00 35,0 C 24 % 1015,2 hPa 0,0 l/m 2,6 km/h (1 Bft) N-NO 1,00 h 0,000 mm 4,0 UV-I 937 W/m 11,2 C 35,0 C 4,3 km/h (1 Bft) 0,00 %
07.08.2015 15:00 35,6 C 22 % 1014,9 hPa 0,0 l/m 3,9 km/h (1 Bft) O 1,00 h 0,000 mm 3,2 UV-I 945 W/m 10,3 C 35,6 C 6,3 km/h (2 Bft) 0,00 %
07.08.2015 16:00 35,4 C 22 % 1014,8 hPa 0,0 l/m 2,8 km/h (1 Bft) SO 1,00 h 0,000 mm 1,4 UV-I 889 W/m 10,3 C 35,4 C 5,0 km/h (1 Bft) 0,00 %
07.08.2015 17:00 35,1 C 22 % 1014,6 hPa 0,0 l/m 2,9 km/h (1 Bft) O-NO 1,00 h 0,000 mm 1,0 UV-I 797 W/m 10,3 C 35,1 C 5,6 km/h (1 Bft) 0,00 %
07.08.2015 18:00 34,6 C 23 % 1014,3 hPa 0,0 l/m 3,3 km/h (1 Bft) O 1,00 h 0,000 mm 1,0 UV-I 634 W/m 10,6 C 34,6 C 6,6 km/h (2 Bft) 0,00 %
07.08.2015 19:00 33,1 C 29 % 1014,3 hPa 0,0 l/m 1,0 km/h (0 Bft) NO 1,00 h 0,000 mm 1,0 UV-I 303 W/m 12,5 C 33,1 C 3,0 km/h (1 Bft) 0,00 %
07.08.2015 20:00 29,1 C 37 % 1014,7 hPa 0,0 l/m 0,1 km/h (0 Bft) N 0,33 h 0,000 mm 0,0 UV-I 19 W/m 12,9 C 29,1 C 0,3 km/h (0 Bft) 0,00 %
07.08.2015 21:00 26,6 C 44 % 1015,0 hPa 0,0 l/m 0,0 km/h (0 Bft) N 0,00 h 0,000 mm 0,0 UV-I 0 W/m 13,4 C 26,6 C 0,3 km/h (0 Bft) 0,00 %
07.08.2015 22:00 24,9 C 50 % 1015,2 hPa 0,0 l/m 0,0 km/h (0 Bft) N 0,00 h 0,000 mm 0,0 UV-I 0 W/m 13,8 C 24,9 C 0,0 km/h (0 Bft) 0,00 %
07.08.2015 23:00 23,7 C 55 % 1015,2 hPa 0,0 l/m 0,0 km/h (0 Bft) N 0,00 h 0,000 mm 0,0 UV-I 0 W/m 14,1 C 23,7 C 0,3 km/h (0 Bft) 0,00 %
08.08.2015 00:00 22,7 C 59 % 1015,4 hPa 0,0 l/m 0,0 km/h (0 Bft) N 0,00 h 0,000 mm 0,0 UV-I 0 W/m 14,3 C 22,7 C 0,0 km/h (0 Bft) 0,00 %
08.08.2015 01:00 21,0 C 67 % 1015,5 hPa 0,0 l/m 0,0 km/h (0 Bft) N 0,00 h 0,000 mm 0,0 UV-I 0 W/m 14,6 C 21,0 C 0,0 km/h (0 Bft) 0,00 %
08.08.2015 02:00 19,6 C 74 % 1015,3 hPa 0,0 l/m 0,0 km/h (0 Bft) N 0,00 h 0,000 mm 0,0 UV-I 0 W/m 14,7 C 19,6 C 0,0 km/h (0 Bft) 0,00 %
08.08.2015 03:00 18,7 C 78 % 1015,2 hPa 0,0 l/m 0,0 km/h (0 Bft) N 0,00 h 0,000 mm 0,0 UV-I 0 W/m 14,7 C 18,7 C 0,0 km/h (0 Bft) 0,00 %
08.08.2015 04:00 18,0 C 81 % 1015,2 hPa 0,0 l/m 0,0 km/h (0 Bft) N 0,00 h 0,000 mm 0,0 UV-I 0 W/m 14,6 C 18,0 C 0,0 km/h (0 Bft) 0,00 %
08.08.2015 05:00 17,2 C 84 % 1015,5 hPa 0,0 l/m 0,0 km/h (0 Bft) N 0,00 h 0,000 mm 0,0 UV-I 6 W/m 14,5 C 17,2 C 0,0 km/h (0 Bft) 0,00 %
08.08.2015 06:00 18,6 C 79 % 1015,9 hPa 0,0 l/m 0,0 km/h (0 Bft) N 1,00 h 0,000 mm 0,0 UV-I 107 W/m 14,8 C 18,6 C 0,0 km/h (0 Bft) 0,00 %
08.08.2015 07:00 23,9 C 59 % 1016,3 hPa 0,0 l/m 0,0 km/h (0 Bft) N 0,83 h 0,000 mm 1,0 UV-I 229 W/m 15,4 C 23,9 C 0,0 km/h (0 Bft) 0,00 %
08.08.2015 08:00 25,8 C 53 % 1016,7 hPa 0,0 l/m 0,0 km/h (0 Bft) N 0,75 h 0,000 mm 1,0 UV-I 298 W/m 15,4 C 25,8 C 0,0 km/h (0 Bft) 0,00 %
08.08.2015 09:00 30,1 C 42 % 1017,1 hPa 0,0 l/m 0,1 km/h (0 Bft) N 1,00 h 0,000 mm 2,0 UV-I 448 W/m 15,6 C 30,1 C 0,3 km/h (0 Bft) 0,00 %
08.08.2015 10:00 32,1 C 38 % 1017,2 hPa 0,0 l/m 0,3 km/h (0 Bft) N-NW 1,00 h 0,000 mm 2,4 UV-I 600 W/m 15,9 C 32,1 C 1,3 km/h (1 Bft) 0,00 %
08.08.2015 11:00 33,6 C 35 % 1017,1 hPa 0,0 l/m 1,3 km/h (1 Bft) W-NW 1,00 h 0,000 mm 3,5 UV-I 750 W/m 16,1 C 33,6 C 3,0 km/h (1 Bft) 0,00 %
08.08.2015 12:00 34,5 C 32 % 1016,7 hPa 0,0 l/m 0,9 km/h (0 Bft) O-NO 1,00 h 0,000 mm 4,0 UV-I 831 W/m 15,5 C 34,5 C 2,0 km/h (1 Bft) 0,00 %
08.08.2015 13:00 34,8 C 31 % 1016,2 hPa 0,0 l/m 2,6 km/h (1 Bft) N-NW 1,00 h 0,000 mm 4,0 UV-I 880 W/m 15,3 C 34,8 C 5,3 km/h (1 Bft) 0,00 %
08.08.2015 14:00 35,4 C 30 % 1015,5 hPa 0,0 l/m 0,4 km/h (0 Bft) N-NO 1,00 h 0,000 mm 3,6 UV-I 938 W/m 14,9 C 35,4 C 1,7 km/h (1 Bft) 0,00 %
08.08.2015 15:00 36,7 C 25 % 1015,0 hPa 0,0 l/m 0,6 km/h (0 Bft) N-NW 0,67 h 0,000 mm 2,5 UV-I 721 W/m 13,4 C 36,7 C 2,0 km/h (1 Bft) 0,00 %
08.08.2015 16:00 35,8 C 27 % 1015,0 hPa 0,0 l/m 0,1 km/h (0 Bft) O-NO 0,83 h 0,000 mm 1,8 UV-I 479 W/m 13,8 C 35,8 C 0,3 km/h (0 Bft) 0,00 %
08.08.2015 17:00 33,9 C 31 % 1014,9 hPa 0,0 l/m 1,8 km/h (1 Bft) N-NW 0,68 h 0,000 mm 1,0 UV-I 401 W/m 14,5 C 33,9 C 3,6 km/h (1 Bft) 0,00 %
08.08.2015 18:00 31,2 C 36 % 1015,1 hPa 0,0 l/m 0,3 km/h (0 Bft) N 0,33 h 0,000 mm 1,0 UV-I 192 W/m 14,2 C 31,2 C 0,7 km/h (0 Bft) 0,00 %
08.08.2015 19:00 30,3 C 39 % 1015,5 hPa 0,0 l/m 0,0 km/h (0 Bft) N 0,83 h 0,000 mm 1,0 UV-I 179 W/m 14,9 C 30,3 C 0,0 km/h (0 Bft) 0,00 %
08.08.2015 20:00 26,7 C 48 % 1015,5 hPa 0,0 l/m 0,0 km/h (0 Bft) N 0,00 h 0,000 mm 0,0 UV-I 10 W/m 14,6 C 26,7 C 0,0 km/h (0 Bft) 0,00 %
08.08.2015 21:00 24,0 C 61 % 1016,3 hPa 0,0 l/m 0,2 km/h (0 Bft) N 0,00 h 0,000 mm 0,0 UV-I 0 W/m 15,9 C 24,0 C 1,5 km/h (1 Bft) 0,00 %
08.08.2015 22:00 24,0 C 60 % 1016,5 hPa 0,0 l/m 0,3 km/h (0 Bft) N 0,00 h 0,000 mm 0,0 UV-I 0 W/m 15,6 C 24,0 C 2,0 km/h (1 Bft) 0,00 %
08.08.2015 23:00 24,2 C 57 % 1016,8 hPa 0,0 l/m 1,4 km/h (1 Bft) N-NW 0,00 h 0,000 mm 0,0 UV-I 0 W/m 15,1 C 24,2 C 3,7 km/h (1 Bft) 0,00 %
09.08.2015 00:00 23,1 C 61 % 1017,3 hPa 0,0 l/m 1,3 km/h (1 Bft) W-SW 0,00 h 0,000 mm 0,0 UV-I 0 W/m 15,2 C 23,1 C 2,6 km/h (1 Bft) 0,00 %
09.08.2015 01:00 21,6 C 67 % 1017,5 hPa 0,0 l/m 0,0 km/h (0 Bft) N 0,00 h 0,000 mm 0,0 UV-I 0 W/m 15,3 C 21,6 C 0,0 km/h (0 Bft) 0,00 %
09.08.2015 02:00 20,7 C 72 % 1017,6 hPa 0,0 l/m 0,0 km/h (0 Bft) N 0,00 h 0,000 mm 0,0 UV-I 0 W/m 15,4 C 20,7 C 0,0 km/h (0 Bft) 0,00 %
09.08.2015 03:00 19,3 C 79 % 1017,3 hPa 0,0 l/m 0,0 km/h (0 Bft) N 0,00 h 0,000 mm 0,0 UV-I 0 W/m 15,5 C 19,3 C 0,0 km/h (0 Bft) 0,00 %
09.08.2015 04:00 18,3 C 83 % 1017,1 hPa 0,0 l/m 0,0 km/h (0 Bft) N 0,00 h 0,000 mm 0,0 UV-I 0 W/m 15,3 C 18,3 C 0,0 km/h (0 Bft) 0,00 %
09.08.2015 05:00 17,8 C 85 % 1017,4 hPa 0,0 l/m 0,0 km/h (0 Bft) N 0,00 h 0,000 mm 0,0 UV-I 1 W/m 15,2 C 17,8 C 0,0 km/h (0 Bft) 0,00 %
09.08.2015 06:00 18,0 C 84 % 1017,5 hPa 0,0 l/m 0,0 km/h (0 Bft) N 0,50 h 0,000 mm 0,0 UV-I 60 W/m 15,2 C 18,0 C 0,0 km/h (0 Bft) 0,00 %
09.08.2015 07:00 21,8 C 67 % 1017,4 hPa 0,0 l/m 0,0 km/h (0 Bft) N 1,00 h 0,000 mm 1,0 UV-I 203 W/m 15,5 C 21,8 C 0,0 km/h (0 Bft) 0,00 %
09.08.2015 08:00 26,0 C 52 % 1017,2 hPa 0,0 l/m 0,0 km/h (0 Bft) N 1,00 h 0,000 mm 1,0 UV-I 302 W/m 15,4 C 26,0 C 0,0 km/h (0 Bft) 0,00 %
09.08.2015 09:00 29,1 C 43 % 1016,9 hPa 0,0 l/m 1,0 km/h (0 Bft) O-SO 1,00 h 0,000 mm 1,8 UV-I 421 W/m 15,4 C 29,1 C 2,3 km/h (1 Bft) 0,00 %
09.08.2015 10:00 29,6 C 42 % 1016,6 hPa 0,0 l/m 2,6 km/h (1 Bft) SO 1,00 h 0,000 mm 2,3 UV-I 560 W/m 15,3 C 29,6 C 4,3 km/h (1 Bft) 0,00 %
09.08.2015 11:00 30,8 C 40 % 1016,2 hPa 0,0 l/m 1,7 km/h (1 Bft) NO 1,00 h 0,000 mm 3,1 UV-I 707 W/m 15,5 C 30,8 C 3,7 km/h (1 Bft) 0,00 %
09.08.2015 12:00 31,5 C 38 % 1015,7 hPa 0,0 l/m 1,6 km/h (1 Bft) O-SO 1,00 h 0,000 mm 4,0 UV-I 787 W/m 15,4 C 31,5 C 3,3 km/h (1 Bft) 0,00 %
09.08.2015 13:00 32,4 C 36 % 1015,2 hPa 0,0 l/m 1,6 km/h (1 Bft) NO 1,00 h 0,000 mm 4,0 UV-I 842 W/m 15,4 C 32,4 C 3,6 km/h (1 Bft) 0,00 %
09.08.2015 14:00 33,6 C 31 % 1014,6 hPa 0,0 l/m 3,3 km/h (1 Bft) O 1,00 h 0,000 mm 3,4 UV-I 893 W/m 14,2 C 33,6 C 5,9 km/h (2 Bft) 0,00 %
09.08.2015 15:00 34,5 C 29 % 1013,9 hPa 0,0 l/m 3,0 km/h (1 Bft) NO 1,00 h 0,000 mm 2,6 UV-I 913 W/m 13,8 C 34,5 C 5,3 km/h (1 Bft) 0,00 %
09.08.2015 16:00 34,5 C 28 % 1013,2 hPa 0,0 l/m 4,1 km/h (1 Bft) O 0,67 h 0,000 mm 1,5 UV-I 544 W/m 13,3 C 34,5 C 6,9 km/h (2 Bft) 0,00 %
09.08.2015 17:00 33,9 C 28 % 1012,9 hPa 0,0 l/m 2,6 km/h (1 Bft) O-SO 0,83 h 0,000 mm 1,0 UV-I 626 W/m 12,9 C 33,9 C 4,3 km/h (1 Bft) 0,00 %
09.08.2015 18:00 33,0 C 29 % 1012,4 hPa 0,0 l/m 3,7 km/h (1 Bft) O 0,42 h 0,000 mm 1,0 UV-I 184 W/m 12,4 C 33,0 C 6,3 km/h (2 Bft) 0,00 %
09.08.2015 19:00 30,9 C 31 % 1012,2 hPa 0,0 l/m 0,9 km/h (0 Bft) O-NO 0,83 h 0,000 mm 0,0 UV-I 124 W/m 11,8 C 30,9 C 2,0 km/h (1 Bft) 0,00 %
09.08.2015 20:00 28,9 C 37 % 1012,4 hPa 0,0 l/m 0,7 km/h (0 Bft) O 0,33 h 0,000 mm 0,0 UV-I 20 W/m 12,9 C 28,9 C 1,7 km/h (1 Bft) 0,00 %
09.08.2015 21:00 26,7 C 43 % 1012,6 hPa 0,0 l/m 0,0 km/h (0 Bft) N 0,00 h 0,000 mm 0,0 UV-I 0 W/m 13,0 C 26,7 C 0,3 km/h (0 Bft) 0,00 %
09.08.2015 22:00 25,5 C 46 % 1012,8 hPa 0,0 l/m 0,2 km/h (0 Bft) O 0,00 h 0,000 mm 0,0 UV-I 0 W/m 13,0 C 25,5 C 0,3 km/h (0 Bft) 0,00 %
09.08.2015 23:00 23,8 C 53 % 1013,5 hPa 0,0 l/m 0,3 km/h (0 Bft) O-NO 0,00 h 0,000 mm 0,0 UV-I 0 W/m 13,5 C 23,8 C 1,3 km/h (1 Bft) 0,00 %
Min-Datum _ 03.08.15 07.08.15 09.08.15 - 03.08.15 - - - - - 06.08.15 03.08.15 03.08.15 03.08.15
_ Min-Zeit 04:39 15:32 19:25 - 00:04 - - - - - 17:51 04:39 00:04 00:04
Minimum _ 10,8 C 20 % 1012,0 hPa - 0,0 km/h (0 Bft) - - - - - 9,3 C 10,8 C 0,0 km/h (0 Bft) 0,00 %
Max-Datum _ 08.08.15 03.08.15 03.08.15 03.08.15 04.08.15 - 03.08.15 03.08.15 03.08.15 08.08.15 06.08.15 08.08.15 04.08.15 03.08.15
_ Max-Zeit 15:23 00:54 00:04 02:04 22:58 - 11:10 00:04 12:00 15:13 12:10 15:23 23:48 00:04
Maximum _ 37,1 C 99 % 1020,9 hPa 0,3 l/m 12,2 km/h
W-SW (2 Bft)
- 0,10 h 0,000 mm 5,0 UV-I 992 W/m 18,2 C 37,1 C 19,8 km/h
W-NW (3 Bft)
0,00 %
Durchschnitt _ 25,1 C 56 % 1016,4 hPa #0,3 l/m 0,7 km/h (0 Bft) O #92:45 h #0,000 mm 2,4 UV-I 518 W/m 14,1 C 25,1 C 1,5 km/h (1 Bft) 0,00 %